• Join FlightAware (Why Join?)
  • Login
  • US Flag 
01:49AM EDT


 

Airport Tracker/Info


-or-


 

Live Flight TrackerFlight Track Log ✈ XA-ASH ✈ 09-May-2013 ✈ KBRO - MMAN / NTR

Flight Track Log - Related Links

Times and Time Zones

All times are in EDT time to prevent confusion due to time zone crossing. See the XA-ASH flight status page for this flight to view local times or setup timezone preferences in your user account.

Time Position Orientation Groundspeed Altitude Reporting Facility
EDT Latitude Longitude Course Direction KTS MPH feet Rate Location/Type
11:25AM 25.8906 -97.4306 201° Southwest 171 197 800  Level Houston Center
11:26AM 25.8744 -97.4375 201° Southwest 186 214 1,800 2,760 Climbing Houston Center
11:27AM 25.8828 -97.5022 278° West 237 273 4,400 2,640 Climbing Houston Center
11:28AM 25.8989 -97.5906 281° West 266 306 7,200 2,640 Climbing Houston Center
11:29AM 25.9136 -97.6758 281° West 279 321 9,900 2,640 Climbing Houston Center
11:30AM 25.9281 -97.7667 280° West 277 319 12,700 2,520 Climbing Houston Center
11:31AM 25.9436 -97.8528 281° West 282 325 15,200 2,280 Climbing Houston Center
11:32AM 25.9439 -97.9433 270° West 293 337 17,500 1,320 Climbing Houston Center
11:33AM 25.9333 -98.0514 264° West 327 376 18,000 240 Climbing Houston Center
11:34AM 25.9244 -98.1703 265° West 381 438 18,000  Level Houston Center
11:35AM 25.9156 -98.2964 266° West 380 437 18,000  Level Houston Center
11:36AM 25.9081 -98.4117 266° West 374 430 18,000  Level Houston Center
11:37AM 25.8994 -98.5342 266° West 370 426 18,000 -180 Level Houston Center
11:38AM 25.8919 -98.6386 265° West 342 394 17,700 -720 Descending Houston Center
11:39AM 25.8828 -98.7428 264° West 340 391 16,600 -960 Descending Houston Center
11:40AM 25.8764 -98.8419 266° West 350 403 15,700 -1,080 Descending Houston Center
11:41AM 25.8642 -98.9786 264° West 361 415 14,400 -1,020 Descending Houston Center
11:42AM 25.8561 -99.0939 266° West 366 421 13,600 -840 Descending Houston Center
11:43AM 25.8481 -99.2028 265° West 366 421 12,700 -900 Descending Houston Center
11:44AM 25.8400 -99.3114 265° West 361 415 11,800 -900 Descending Houston Center
11:45AM 25.8311 -99.4139 265° West 353 406 10,900 -900 Descending Houston Center
11:46AM 25.8228 -99.5156 265° West 345 397 10,000 -960 Descending Houston Center
11:47AM 25.8161 -99.6217 266° West 320 368 9,000 -900 Descending Houston Center
11:48AM 25.8067 -99.7022 263° West 294 338 8,200 -780 Descending Houston Center
11:49AM 25.8108 -99.7800 273° West 279 321 7,500 -720 Descending Houston Center
11:50AM 25.8464 -99.8450 301° West 260 299 6,800 -720 Descending Houston Center
11:51AM 25.8811 -99.9072 302° West 247 284 6,000 -780 Descending Houston Center
11:52AM 25.9156 -99.9692 302° West 243 280 5,200 -780 Descending Houston Center